Time;durP1;ratioP1;P1;durP2;ratioP2;P2;SDS_P1;SDS_P2;PMS_P1;PMS_P2;Temp;Humidity;BMP_temperature;BMP_pressure;BME280_temperature;BME280_humidity;BME280_pressure;Samples;Min_cycle;Max_cycle;Signal;HPM_P1;HPM_P2
2023/07/01 00:00:39;;;;;;;12.25;5.07;;;;;;;;;;2485916;23;19914;-95
2023/07/01 00:02:19;;;;;;;14.63;4.53;;;;;;;;;;2486331;23;20484;-95
2023/07/01 00:06:19;;;;;;;10.07;4.40;;;;;;;;;;2494291;23;20019;-95
2023/07/01 00:11:44;;;;;;;12.23;6.65;;;;;;;;;;2531863;23;20025;-94
2023/07/01 00:13:08;;;;;;;10.63;5.03;;;;;;;;;;2522595;23;20105;-93
2023/07/01 00:14:29;;;;;;;10.98;5.03;;;;;;;;;;2519163;23;20105;-93
2023/07/01 00:16:09;;;;;;;11.15;5.32;;;;;;;;;;2504653;23;20015;-92
2023/07/01 00:17:32;;;;;;;9.10;5.40;;;;;;;;;;2522592;23;20014;-95
2023/07/01 00:18:56;;;;;;;11.27;5.38;;;;;;;;;;2522458;23;20449;-93
2023/07/01 00:20:24;;;;;;;14.55;5.88;;;;;;;;;;2517340;23;20029;-92
2023/07/01 00:21:45;;;;;;;11.32;5.30;;;;;;;;;;2519600;23;20168;-93
2023/07/01 00:23:14;;;;;;;15.27;6.78;;;;;;;;;;2515951;23;20010;-92
2023/07/01 00:24:53;;;;;;;12.57;6.07;;;;;;;;;;2520391;23;20006;-93
2023/07/01 00:26:14;;;;;;;15.95;5.93;;;;;;;;;;2532297;23;20136;-93
2023/07/01 00:27:46;;;;;;;23.05;8.10;;;;;;;;;;2524015;23;20017;-93
2023/07/01 00:29:07;;;;;;;;;;;;;;;;;;2525494;23;20483;-93
2023/07/01 00:30:33;;;;;;;11.40;5.55;;;;;;;;;;2516510;23;20382;-93
2023/07/01 00:32:00;;;;;;;17.13;5.65;;;;;;;;;;2522091;23;20010;-93
2023/07/01 00:33:44;;;;;;;11.70;5.40;;;;;;;;;;2520316;23;20006;-92
2023/07/01 00:35:43;;;;;;;12.63;5.95;;;;;;;;;;2534040;23;20006;-93
2023/07/01 00:37:43;;;;;;;13.88;5.88;;;;;;;;;;2473232;24;20024;-93
2023/07/01 00:43:34;;;;;;;13.73;6.13;;;;;;;;;;2466334;23;20333;-93
2023/07/01 00:45:16;;;;;;;11.80;6.32;;;;;;;;;;2460742;24;20013;-93
2023/07/01 00:47:25;;;;;;;;;;;;;;;;;;;;;
2023/07/01 00:49:10;;;;;;;12.00;6.00;;;;;;;;;;2476159;24;20502;-94
2023/07/01 00:50:35;;;;;;;9.98;5.45;;;;;;;;;;2476506;24;20015;-94
2023/07/01 00:54:14;;;;;;;10.18;5.93;;;;;;;;;;2464607;24;20009;-94
2023/07/01 00:55:38;;;;;;;13.63;5.97;;;;;;;;;;2461492;24;20013;-93
2023/07/01 00:57:12;;;;;;;13.75;6.50;;;;;;;;;;2453417;24;20024;-95
2023/07/01 01:01:09;;;;;;;11.80;5.95;;;;;;;;;;2437305;24;20027;-94
2023/07/01 01:03:02;;;;;;;18.20;7.85;;;;;;;;;;2453444;24;20016;-94
2023/07/01 01:04:33;;;;;;;9.20;5.35;;;;;;;;;;2464410;24;20013;-94
2023/07/01 01:06:43;;;;;;;;;;;;;;;;;;;;;
2023/07/01 01:08:44;;;;;;;15.70;6.97;;;;;;;;;;2486351;23;20156;-94
2023/07/01 01:10:28;;;;;;;34.17;11.48;;;;;;;;;;2466512;23;20013;-89
2023/07/01 01:11:49;;;;;;;12.40;6.45;;;;;;;;;;2518192;23;20024;-89
2023/07/01 01:13:10;;;;;;;13.90;6.32;;;;;;;;;;2516401;23;20007;-88
2023/07/01 01:14:35;;;;;;;16.15;6.07;;;;;;;;;;2514547;23;20455;-86
2023/07/01 01:15:57;;;;;;;12.48;7.15;;;;;;;;;;2514933;23;20082;-87
2023/07/01 01:17:19;;;;;;;16.50;6.68;;;;;;;;;;2516559;23;20010;-89
2023/07/01 01:18:42;;;;;;;15.02;5.93;;;;;;;;;;2526884;23;20023;-88
2023/07/01 01:20:13;;;;;;;12.05;6.10;;;;;;;;;;2522108;23;20018;-90
2023/07/01 01:22:09;;;;;;;;;;;;;;;;;;;;;
2023/07/01 01:24:04;;;;;;;;;;;;;;;;;;;;;
2023/07/01 01:25:42;;;;;;;12.35;6.30;;;;;;;;;;2532221;23;20281;-87
2023/07/01 01:27:04;;;;;;;11.90;6.28;;;;;;;;;;2522261;23;20014;-87
2023/07/01 01:28:30;;;;;;;12.85;5.40;;;;;;;;;;2518540;23;20035;-87
2023/07/01 01:30:14;;;;;;;14.70;6.38;;;;;;;;;;2516155;23;20130;-87
2023/07/01 01:31:35;;;;;;;11.25;6.13;;;;;;;;;;2532178;23;20013;-87
2023/07/01 01:33:08;;;;;;;15.38;6.38;;;;;;;;;;2519727;23;20011;-88
2023/07/01 01:34:29;;;;;;;12.80;6.63;;;;;;;;;;2520721;23;20010;-88
2023/07/01 01:35:50;;;;;;;9.88;5.68;;;;;;;;;;2515977;23;20018;-87
2023/07/01 01:37:13;;;;;;;14.13;6.33;;;;;;;;;;2516169;23;20098;-87
2023/07/01 01:38:35;;;;;;;11.48;5.85;;;;;;;;;;2518268;23;20389;-88
2023/07/01 01:40:19;;;;;;;;;;;;;;;;;;;;;
2023/07/01 01:42:06;;;;;;;12.75;5.07;;;;;;;;;;2534682;23;19901;-87
2023/07/01 01:43:46;;;;;;;12.50;5.55;;;;;;;;;;2524323;23;20262;-93
2023/07/01 01:45:22;;;;;;;9.75;5.78;;;;;;;;;;2523197;23;20010;-93
2023/07/01 01:46:46;;;;;;;13.48;6.20;;;;;;;;;;2510185;23;20447;-93
2023/07/01 01:48:08;;;;;;;13.38;5.90;;;;;;;;;;2519826;23;20287;-93
2023/07/01 01:49:30;;;;;;;12.73;6.07;;;;;;;;;;2521822;23;20017;-93
2023/07/01 01:50:57;;;;;;;;;;;;;;;;;;2519802;23;20428;-93
2023/07/01 01:52:20;;;;;;;14.30;7.07;;;;;;;;;;2532781;23;20417;-92
2023/07/01 01:53:42;;;;;;;10.40;5.70;;;;;;;;;;2523557;23;20014;-93
2023/07/01 01:55:13;;;;;;;11.52;5.53;;;;;;;;;;2520925;23;20014;-93
2023/07/01 01:56:36;;;;;;;17.70;10.05;;;;;;;;;;2501885;23;20016;-93
2023/07/01 01:58:14;;;;;;;;;;;;;;;;;;;;;
2023/07/01 01:59:36;;;;;;;10.63;5.85;;;;;;;;;;2536175;23;20034;-94
2023/07/01 02:00:57;;;;;;;8.32;5.53;;;;;;;;;;2523491;23;20022;-92
2023/07/01 02:02:44;;;;;;;12.90;6.05;;;;;;;;;;2518528;23;20026;-93
2023/07/01 02:04:05;;;;;;;10.93;6.05;;;;;;;;;;2533982;23;20010;-93
2023/07/01 02:05:43;;;;;;;9.77;5.88;;;;;;;;;;2524149;23;20055;-93
2023/07/01 02:07:10;;;;;;;11.13;6.65;;;;;;;;;;2510367;23;20022;-94
2023/07/01 02:08:32;;;;;;;14.98;6.13;;;;;;;;;;2524307;23;20017;-93
2023/07/01 02:09:53;;;;;;;;;;;;;;;;;;2520217;23;20013;-94
2023/07/01 02:11:34;;;;;;;9.95;5.82;;;;;;;;;;2519288;23;19901;-93
2023/07/01 02:12:55;;;;;;;13.10;6.25;;;;;;;;;;2524813;23;20145;-94
2023/07/01 02:14:16;;;;;;;14.60;6.40;;;;;;;;;;2517956;23;20011;-94
2023/07/01 02:15:37;;;;;;;13.60;6.60;;;;;;;;;;2521339;23;20109;-94
2023/07/01 02:17:24;;;;;;;15.95;6.75;;;;;;;;;;2515726;23;20014;-93
2023/07/01 02:18:53;;;;;;;13.00;6.43;;;;;;;;;;2510551;23;20014;-94
2023/07/01 02:20:46;;;;;;;14.20;6.53;;;;;;;;;;2533200;23;20050;-94
2023/07/01 02:22:13;;;;;;;;;;;;;;;;;;2455880;23;20080;-93
2023/07/01 02:25:23;;;;;;;18.17;7.20;;;;;;;;;;2476638;24;20020;-95
2023/07/01 02:26:47;;;;;;;26.92;11.75;;;;;;;;;;2502515;23;20020;-87
2023/07/01 02:30:10;;;;;;;13.07;7.13;;;;;;;;;;2531355;23;20428;-88
2023/07/01 02:31:49;;;;;;;12.07;6.72;;;;;;;;;;2521609;23;20394;-89
2023/07/01 02:33:50;;;;;;;;;;;;;;;;;;;;;
2023/07/01 02:35:12;;;;;;;21.30;7.63;;;;;;;;;;2532705;23;20010;-88
2023/07/01 02:36:33;;;;;;;10.48;6.35;;;;;;;;;;2521358;23;20015;-88
2023/07/01 02:37:54;;;;;;;12.38;6.80;;;;;;;;;;2516256;23;20416;-88
2023/07/01 02:39:22;;;;;;;8.18;5.85;;;;;;;;;;2516903;23;20015;-88
2023/07/01 02:40:55;;;;;;;11.45;6.22;;;;;;;;;;2518390;23;20006;-88
2023/07/01 02:42:31;;;;;;;10.43;6.43;;;;;;;;;;2518205;23;20014;-88
2023/07/01 02:43:52;;;;;;;15.05;6.28;;;;;;;;;;2520629;23;20109;-89
2023/07/01 02:45:14;;;;;;;15.18;7.35;;;;;;;;;;2516184;23;20031;-88
2023/07/01 02:46:35;;;;;;;13.45;6.97;;;;;;;;;;2517665;23;20030;-89
2023/07/01 02:48:10;;;;;;;;;;;;;;;;;;;;;
2023/07/01 02:49:43;;;;;;;13.88;7.00;;;;;;;;;;2533984;23;20021;-95
2023/07/01 02:51:05;;;;;;;12.30;6.95;;;;;;;;;;2520819;23;20010;-94
2023/07/01 02:52:45;;;;;;;11.15;6.53;;;;;;;;;;2517490;23;20006;-95
2023/07/01 02:54:06;;;;;;;11.23;6.20;;;;;;;;;;2520329;23;20010;-95
2023/07/01 02:55:29;;;;;;;11.75;6.38;;;;;;;;;;2515737;23;20006;-94
2023/07/01 02:57:04;;;;;;;13.52;6.70;;;;;;;;;;2517585;23;20033;-95
2023/07/01 02:58:25;;;;;;;18.88;8.07;;;;;;;;;;2519556;23;20010;-89
2023/07/01 02:59:58;;;;;;;11.90;6.07;;;;;;;;;;2517729;23;20340;-88
2023/07/01 03:01:19;;;;;;;;;;;;;;;;;;2517814;23;20452;-88
2023/07/01 03:02:45;;;;;;;20.27;8.70;;;;;;;;;;2519152;23;19905;-88
2023/07/01 03:04:06;;;;;;;12.07;6.07;;;;;;;;;;2517206;23;20006;-88
2023/07/01 03:09:18;;;;;;;14.60;6.47;;;;;;;;;;2495566;23;20003;-89
2023/07/01 03:10:39;;;;;;;12.90;6.97;;;;;;;;;;2506508;23;20033;-88
2023/07/01 03:12:03;;;;;;;19.02;7.53;;;;;;;;;;2516369;23;20022;-88
2023/07/01 03:13:37;;;;;;;14.95;7.13;;;;;;;;;;2516090;23;20381;-89
2023/07/01 03:14:58;;;;;;;14.98;6.47;;;;;;;;;;2517121;23;20086;-89
2023/07/01 03:16:20;;;;;;;12.32;5.95;;;;;;;;;;2514312;23;20021;-88
2023/07/01 03:17:42;;;;;;;13.02;6.20;;;;;;;;;;2514969;23;20050;-89
2023/07/01 03:19:12;;;;;;;14.07;6.85;;;;;;;;;;2526960;23;20290;-88
2023/07/01 03:20:33;;;;;;;15.95;7.43;;;;;;;;;;2520866;23;20038;-88
2023/07/01 03:21:54;;;;;;;17.98;6.93;;;;;;;;;;2516754;23;20014;-88
2023/07/01 03:23:15;;;;;;;10.43;6.03;;;;;;;;;;2516357;23;20059;-89
2023/07/01 03:24:48;;;;;;;12.48;6.40;;;;;;;;;;2514823;23;20014;-89
2023/07/01 03:26:45;;;;;;;13.45;6.57;;;;;;;;;;2517824;23;20006;-89
2023/07/01 03:28:19;;;;;;;12.60;6.57;;;;;;;;;;2481654;23;20019;-89
2023/07/01 03:31:24;;;;;;;11.75;6.70;;;;;;;;;;2511447;23;20014;-89
2023/07/01 03:32:46;;;;;;;12.65;6.78;;;;;;;;;;2496815;23;20437;-88
2023/07/01 03:34:08;;;;;;;14.70;7.15;;;;;;;;;;2490753;23;20372;-89
2023/07/01 03:35:28;;;;;;;17.13;7.38;;;;;;;;;;2496013;23;20027;-89
2023/07/01 03:36:49;;;;;;;16.02;7.63;;;;;;;;;;2510252;23;20060;-89
2023/07/01 03:38:10;;;;;;;15.68;7.07;;;;;;;;;;2518160;23;20573;-88
2023/07/01 03:39:32;;;;;;;7.80;6.10;;;;;;;;;;2516502;23;20452;-89
2023/07/01 03:40:53;;;;;;;13.48;6.82;;;;;;;;;;2516902;23;20025;-88
2023/07/01 03:42:14;;;;;;;18.13;8.02;;;;;;;;;;2527153;23;20017;-88
2023/07/01 03:43:35;;;;;;;11.32;6.50;;;;;;;;;;2535188;23;20343;-88
2023/07/01 03:44:56;;;;;;;9.73;6.82;;;;;;;;;;2531020;23;20033;-89
2023/07/01 03:46:17;;;;;;;10.55;6.53;;;;;;;;;;2519235;23;20006;-88
2023/07/01 03:47:41;;;;;;;15.57;8.07;;;;;;;;;;2514097;23;20022;-86
2023/07/01 03:49:02;;;;;;;10.50;6.60;;;;;;;;;;2520160;23;20033;-89
2023/07/01 03:50:35;;;;;;;16.67;7.50;;;;;;;;;;2515253;23;20014;-89
2023/07/01 03:51:56;;;;;;;10.38;7.07;;;;;;;;;;2519321;23;20405;-88
2023/07/01 03:53:17;;;;;;;13.00;7.35;;;;;;;;;;2516331;23;20085;-88
2023/07/01 03:54:38;;;;;;;21.63;8.27;;;;;;;;;;2515753;23;20014;-89
2023/07/01 03:56:20;;;;;;;16.25;8.02;;;;;;;;;;2515317;23;20332;-89
2023/07/01 03:57:51;;;;;;;44.67;15.88;;;;;;;;;;2503908;23;20030;-89
2023/07/01 03:59:25;;;;;;;;;;;;;;;;;;;;;
2023/07/01 04:01:23;;;;;;;16.40;7.20;;;;;;;;;;2522738;23;20354;-88
2023/07/01 04:04:44;;;;;;;18.25;8.75;;;;;;;;;;2502278;23;20015;-89
2023/07/01 04:06:18;;;;;;;;;;;;;;;;;;;;;
2023/07/01 04:09:51;;;;;;;13.68;7.85;;;;;;;;;;2497055;23;20019;-89
2023/07/01 04:15:11;;;;;;;10.85;7.05;;;;;;;;;;2530171;23;20021;-88
2023/07/01 04:16:34;;;;;;;17.83;7.82;;;;;;;;;;2520465;23;20041;-88
2023/07/01 04:17:58;;;;;;;23.38;11.32;;;;;;;;;;2514378;23;20011;-87
2023/07/01 04:19:19;;;;;;;18.35;7.97;;;;;;;;;;2516168;23;20014;-89
2023/07/01 04:20:40;;;;;;;14.55;7.35;;;;;;;;;;2528495;23;20106;-88
2023/07/01 04:22:01;;;;;;;11.20;6.20;;;;;;;;;;2517814;23;20017;-88
2023/07/01 04:23:27;;;;;;;14.15;7.78;;;;;;;;;;2513984;23;20037;-88
2023/07/01 04:24:54;;;;;;;13.85;7.50;;;;;;;;;;2519150;23;20018;-88
2023/07/01 04:26:21;;;;;;;10.63;7.05;;;;;;;;;;2515905;23;20022;-88
2023/07/01 04:27:54;;;;;;;10.82;7.13;;;;;;;;;;2519312;23;20026;-89
2023/07/01 04:29:18;;;;;;;12.77;7.70;;;;;;;;;;2502853;23;20059;-88
2023/07/01 04:31:01;;;;;;;15.23;8.13;;;;;;;;;;2508299;23;20137;-88
2023/07/01 04:33:03;;;;;;;;;;;;;;;;;;;;;
2023/07/01 04:34:22;;;;;;;13.40;7.90;;;;;;;;;;2530906;23;20045;-88
2023/07/01 04:35:51;;;;;;;9.32;6.72;;;;;;;;;;2520753;23;20014;-88
2023/07/01 04:37:12;;;;;;;10.32;7.03;;;;;;;;;;2516326;23;20018;-88
2023/07/01 04:38:33;;;;;;;14.55;8.02;;;;;;;;;;2515809;23;20041;-89
2023/07/01 04:39:56;;;;;;;15.65;7.75;;;;;;;;;;2527419;23;20419;-87
2023/07/01 04:41:25;;;;;;;13.73;8.27;;;;;;;;;;2520322;23;20011;-89
2023/07/01 04:42:49;;;;;;;12.18;7.78;;;;;;;;;;2516206;23;20021;-88
2023/07/01 04:44:09;;;;;;;13.68;7.60;;;;;;;;;;2514281;23;20007;-88
2023/07/01 04:47:28;;;;;;;14.07;7.95;;;;;;;;;;2531326;23;20010;-88
2023/07/01 04:49:04;;;;;;;13.77;7.95;;;;;;;;;;2505536;23;20018;-88
2023/07/01 04:50:40;;;;;;;14.90;8.15;;;;;;;;;;2519415;23;20010;-86
2023/07/01 04:52:29;;;;;;;;;;;;;;;;;;;;;
2023/07/01 04:53:56;;;;;;;18.25;8.57;;;;;;;;;;2532954;23;20016;-88
2023/07/01 04:55:32;;;;;;;15.48;8.27;;;;;;;;;;2520563;23;20014;-89
2023/07/01 04:56:53;;;;;;;11.73;7.88;;;;;;;;;;2520489;23;20014;-87
2023/07/01 04:58:27;;;;;;;29.23;12.45;;;;;;;;;;2500382;23;20289;-88
2023/07/01 05:00:11;;;;;;;13.98;8.02;;;;;;;;;;2518085;23;20018;-88
2023/07/01 05:01:32;;;;;;;15.05;8.63;;;;;;;;;;2521376;23;20011;-88
2023/07/01 05:02:59;;;;;;;13.48;8.02;;;;;;;;;;2514057;23;20007;-88
2023/07/01 05:04:45;;;;;;;11.40;7.38;;;;;;;;;;2518016;23;20459;-87
2023/07/01 05:06:06;;;;;;;10.18;6.45;;;;;;;;;;2522619;23;20018;-86
2023/07/01 05:07:27;;;;;;;13.05;7.70;;;;;;;;;;2515962;23;20018;-89
2023/07/01 05:08:54;;;;;;;11.57;7.05;;;;;;;;;;2502788;23;20026;-89
2023/07/01 05:10:15;;;;;;;16.88;8.82;;;;;;;;;;2514585;23;20440;-89
2023/07/01 05:11:36;;;;;;;15.00;8.20;;;;;;;;;;2518605;23;20372;-89
2023/07/01 05:12:57;;;;;;;11.40;7.78;;;;;;;;;;2527978;23;20098;-89
2023/07/01 05:14:21;;;;;;;14.75;8.48;;;;;;;;;;2522323;23;20177;-89
2023/07/01 05:15:42;;;;;;;13.18;7.55;;;;;;;;;;2518004;23;20006;-89
2023/07/01 05:17:09;;;;;;;11.63;8.45;;;;;;;;;;2517112;23;20017;-87
2023/07/01 05:18:36;;;;;;;19.65;9.00;;;;;;;;;;2515980;23;20010;-88
2023/07/01 05:22:19;;;;;;;13.57;8.07;;;;;;;;;;2534528;23;20006;-87
2023/07/01 05:23:46;;;;;;;18.55;9.48;;;;;;;;;;2492567;23;20079;-88
2023/07/01 05:25:16;;;;;;;16.80;8.68;;;;;;;;;;2519521;23;20007;-88
2023/07/01 05:26:37;;;;;;;14.25;8.20;;;;;;;;;;2519164;23;20006;-88
2023/07/01 05:27:58;;;;;;;10.73;7.60;;;;;;;;;;2517561;23;20007;-88
2023/07/01 05:29:20;;;;;;;11.57;7.63;;;;;;;;;;2504567;23;20023;-86
2023/07/01 05:31:15;;;;;;;;;;;;;;;;;;;;;
2023/07/01 05:32:43;;;;;;;14.25;8.05;;;;;;;;;;2534003;23;20017;-87
2023/07/01 05:34:32;;;;;;;;;;;;;;;;;;;;;
2023/07/01 05:35:53;;;;;;;16.45;8.45;;;;;;;;;;2530797;23;20009;-87
2023/07/01 05:37:14;;;;;;;15.15;8.45;;;;;;;;;;2521558;23;20382;-88
2023/07/01 05:38:36;;;;;;;29.65;12.85;;;;;;;;;;2515386;23;20006;-88
2023/07/01 05:39:57;;;;;;;11.35;7.38;;;;;;;;;;2515405;23;20090;-88
2023/07/01 05:41:18;;;;;;;14.27;7.95;;;;;;;;;;2515137;23;20017;-88
2023/07/01 05:42:39;;;;;;;10.20;7.25;;;;;;;;;;2518186;23;20017;-89
2023/07/01 05:44:00;;;;;;;11.60;7.55;;;;;;;;;;2516634;23;20022;-88
2023/07/01 05:45:55;;;;;;;14.43;7.78;;;;;;;;;;2517312;23;20010;-89
2023/07/01 05:47:50;;;;;;;19.67;8.55;;;;;;;;;;2505329;23;20006;-88
2023/07/01 05:49:14;;;;;;;19.13;10.23;;;;;;;;;;2487408;23;20019;-89
2023/07/01 05:50:35;;;;;;;14.00;7.63;;;;;;;;;;2493771;23;20011;-87
2023/07/01 05:52:08;;;;;;;16.27;8.48;;;;;;;;;;2515294;23;20459;-88
2023/07/01 05:53:34;;;;;;;11.23;7.20;;;;;;;;;;2520266;23;20487;-88
2023/07/01 05:54:58;;;;;;;13.27;7.28;;;;;;;;;;2510507;23;20030;-95
2023/07/01 05:56:22;;;;;;;14.45;7.65;;;;;;;;;;2500135;23;20019;-95
2023/07/01 05:58:17;;;;;;;;;;;;;;;;;;;;;
2023/07/01 06:02:11;;;;;;;16.20;7.25;;;;;;;;;;2503566;23;20082;-96
2023/07/01 06:03:32;;;;;;;15.63;8.65;;;;;;;;;;2483275;23;20035;-95
2023/07/01 06:04:53;;;;;;;10.13;6.95;;;;;;;;;;2496616;23;20022;-94
2023/07/01 06:06:15;;;;;;;12.60;6.95;;;;;;;;;;2510286;23;20010;-95
2023/07/01 06:07:36;;;;;;;12.63;7.45;;;;;;;;;;2512467;23;20090;-95
2023/07/01 06:08:57;;;;;;;29.27;12.40;;;;;;;;;;2498343;23;20019;-95
2023/07/01 06:10:22;;;;;;;12.65;7.85;;;;;;;;;;2507931;23;20015;-94
2023/07/01 06:15:31;;;;;;;23.65;9.70;;;;;;;;;;2500994;23;20322;-96
2023/07/01 06:16:54;;;;;;;13.27;8.48;;;;;;;;;;2487164;23;20011;-95
2023/07/01 06:18:39;;;;;;;11.32;7.35;;;;;;;;;;2509200;23;20015;-95
2023/07/01 06:20:29;;;;;;;15.57;7.57;;;;;;;;;;2520542;23;20451;-95
2023/07/01 06:22:13;;;;;;;11.88;6.97;;;;;;;;;;2537546;23;20117;-95
2023/07/01 06:23:39;;;;;;;10.60;6.75;;;;;;;;;;2537053;23;20022;-96
2023/07/01 06:25:16;;;;;;;;;;;;;;;;;;;;;
2023/07/01 06:27:07;;;;;;;10.60;7.13;;;;;;;;;;2550054;23;20013;-95
2023/07/01 06:28:28;;;;;;;10.60;7.30;;;;;;;;;;2536481;23;20006;-95
2023/07/01 06:29:49;;;;;;;15.25;8.35;;;;;;;;;;2503036;23;20002;-94
2023/07/01 06:35:28;;;;;;;14.35;8.52;;;;;;;;;;2547693;23;20008;-95
2023/07/01 06:37:14;;;;;;;11.25;6.80;;;;;;;;;;2547381;23;20013;-96
2023/07/01 06:38:53;;;;;;;15.88;8.38;;;;;;;;;;2533275;23;20006;-95
2023/07/01 06:40:30;;;;;;;16.67;8.75;;;;;;;;;;2532877;23;20112;-94
2023/07/01 06:42:14;;;;;;;;;;;;;;;;;;;;;
2023/07/01 06:44:00;;;;;;;14.68;8.38;;;;;;;;;;2547678;23;20017;-95
2023/07/01 06:45:37;;;;;;;17.02;8.40;;;;;;;;;;2532833;23;20048;-96
2023/07/01 06:47:21;;;;;;;15.32;8.18;;;;;;;;;;2534757;23;20017;-95
2023/07/01 06:48:56;;;;;;;15.02;8.80;;;;;;;;;;2535018;23;20009;-96
2023/07/01 06:50:34;;;;;;;17.73;8.63;;;;;;;;;;2470044;23;20016;-95
2023/07/01 06:58:53;;;;;;;11.98;7.47;;;;;;;;;;2472662;24;20470;-89
2023/07/01 07:06:14;;;;;;;15.00;8.75;;;;;;;;;;2404082;24;20405;-89
2023/07/01 07:07:43;;;;;;;12.68;7.38;;;;;;;;;;2453018;24;20008;-89
2023/07/01 07:09:15;;;;;;;14.25;8.07;;;;;;;;;;2471382;24;20076;-89
2023/07/01 07:13:05;;;;;;;;;;;;;;;;;;;;;
2023/07/01 07:15:09;;;;;;;;;;;;;;;;;;;;;
2023/07/01 07:16:34;;;;;;;20.55;10.05;;;;;;;;;;2449012;23;20029;-89
2023/07/01 07:18:23;;;;;;;17.70;8.45;;;;;;;;;;2484382;23;20024;-90
2023/07/01 07:19:58;;;;;;;15.32;8.07;;;;;;;;;;2475707;23;20012;-90
2023/07/01 07:21:30;;;;;;;13.90;7.90;;;;;;;;;;2503249;23;20006;-90
2023/07/01 07:22:54;;;;;;;13.57;7.78;;;;;;;;;;2518309;23;20010;-89
2023/07/01 07:24:17;;;;;;;13.75;7.53;;;;;;;;;;2514427;23;20014;-89
2023/07/01 09:42:00;;;;;;;12.40;5.32;;;;;;;;;;2539444;23;20029;-77
2023/07/01 09:53:38;;;;;;;6.95;4.63;;;;;;;;;;2519104;23;20002;-76
2023/07/01 09:55:00;;;;;;;8.93;4.35;;;;;;;;;;2516350;23;20006;-78
2023/07/01 09:56:21;;;;;;;14.65;5.75;;;;;;;;;;2540364;23;20459;-74
2023/07/01 09:57:44;;;;;;;8.63;4.80;;;;;;;;;;2553838;23;20016;-76
2023/07/01 09:59:05;;;;;;;5.35;4.28;;;;;;;;;;2545390;23;20033;-74
2023/07/01 10:00:27;;;;;;;9.43;4.53;;;;;;;;;;2539717;23;20474;-74
2023/07/01 10:01:50;;;;;;;;;;;;;;;;;;2551083;23;20021;-75
2023/07/01 10:03:11;;;;;;;7.20;4.22;;;;;;;;;;2543502;23;20350;-75
2023/07/01 10:04:33;;;;;;;6.40;4.22;;;;;;;;;;2543388;23;20013;-73
2023/07/01 10:05:54;;;;;;;8.20;4.32;;;;;;;;;;2542642;23;20064;-72
2023/07/01 10:07:15;;;;;;;7.20;3.88;;;;;;;;;;2550583;23;20009;-73
2023/07/01 10:08:37;;;;;;;13.45;5.20;;;;;;;;;;2553625;23;20490;-77
2023/07/01 10:09:58;;;;;;;5.45;3.97;;;;;;;;;;2555684;23;20009;-74
2023/07/01 10:11:21;;;;;;;7.00;3.77;;;;;;;;;;2541121;23;20013;-75
2023/07/01 10:12:43;;;;;;;10.48;5.10;;;;;;;;;;2550912;23;20383;-77
2023/07/01 10:14:04;;;;;;;14.70;5.80;;;;;;;;;;2552741;23;20347;-76
2023/07/01 10:19:03;;;;;;;9.60;5.18;;;;;;;;;;2554925;23;20017;-78
2023/07/01 10:20:32;;;;;;;6.15;4.30;;;;;;;;;;2555316;23;20016;-75
2023/07/01 10:21:53;;;;;;;9.80;5.00;;;;;;;;;;2553432;23;20403;-75
2023/07/01 10:23:14;;;;;;;10.98;4.78;;;;;;;;;;2553857;23;20016;-75
2023/07/01 10:24:38;;;;;;;8.27;4.53;;;;;;;;;;2554352;23;20005;-76
2023/07/01 10:26:19;;;;;;;5.63;3.95;;;;;;;;;;2554695;23;20005;-75
2023/07/01 10:27:39;;;;;;;8.00;4.32;;;;;;;;;;2543173;23;20013;-74
2023/07/01 10:29:21;;;;;;;6.55;4.03;;;;;;;;;;2550328;23;20009;-74
2023/07/01 10:30:42;;;;;;;11.60;5.93;;;;;;;;;;2499963;23;20440;-74
2023/07/01 10:32:09;;;;;;;8.10;4.50;;;;;;;;;;2538532;23;20014;-76
2023/07/01 10:33:33;;;;;;;8.25;4.45;;;;;;;;;;2543008;23;20014;-75
2023/07/01 10:37:11;;;;;;;11.07;4.90;;;;;;;;;;2554850;23;20001;-73
2023/07/01 10:38:33;;;;;;;7.07;4.43;;;;;;;;;;2554896;23;20439;-77
2023/07/01 10:40:12;;;;;;;8.57;4.53;;;;;;;;;;2541032;23;20013;-76
2023/07/01 10:41:52;;;;;;;10.82;5.07;;;;;;;;;;2541679;23;20086;-77
2023/07/01 10:43:47;;;;;;;7.40;4.47;;;;;;;;;;2542452;23;20013;-77
2023/07/01 10:45:10;;;;;;;7.63;4.65;;;;;;;;;;2555186;23;20009;-73
2023/07/01 10:46:31;;;;;;;9.18;4.88;;;;;;;;;;2553934;23;20006;-77
2023/07/01 10:47:55;;;;;;;9.75;5.13;;;;;;;;;;2554491;23;20009;-75
2023/07/01 10:49:35;;;;;;;;;;;;;;;;;;;;;
2023/07/01 10:51:34;;;;;;;7.65;4.43;;;;;;;;;;2553779;23;20009;-75
2023/07/01 10:52:55;;;;;;;9.98;4.95;;;;;;;;;;2495543;23;20012;-78
2023/07/01 10:54:32;;;;;;;7.68;4.32;;;;;;;;;;2491834;23;20016;-77
2023/07/01 10:56:18;;;;;;;6.75;4.10;;;;;;;;;;2555467;23;20175;-76
2023/07/01 11:04:38;;;;;;;20.25;7.63;;;;;;;;;;2493158;23;20019;-78
2023/07/01 11:05:54;;;;;;;9.98;4.90;;;;;;;;;;2556512;23;20016;-79
2023/07/01 11:07:22;;;;;;;5.97;4.32;;;;;;;;;;2544821;23;20097;-79
2023/07/01 11:08:44;;;;;;;7.57;4.80;;;;;;;;;;2553568;23;20005;-78
2023/07/01 11:10:05;;;;;;;7.00;4.57;;;;;;;;;;2555534;23;20005;-77
2023/07/01 11:11:42;;;;;;;10.65;5.15;;;;;;;;;;2543129;23;20018;-78
2023/07/01 11:13:12;;;;;;;10.70;4.55;;;;;;;;;;2553136;23;20342;-79
2023/07/01 11:14:34;;;;;;;12.88;5.85;;;;;;;;;;2541362;23;20021;-78
2023/07/01 11:16:02;;;;;;;12.93;6.03;;;;;;;;;;2536779;23;20009;-80
2023/07/01 11:17:26;;;;;;;18.67;7.47;;;;;;;;;;2539929;23;20549;-78
2023/07/01 11:18:50;;;;;;;10.93;5.28;;;;;;;;;;2551171;23;20020;-79
2023/07/01 11:20:11;;;;;;;8.85;5.13;;;;;;;;;;2541787;23;20009;-78
2023/07/01 11:21:32;;;;;;;11.68;5.95;;;;;;;;;;2543057;23;20033;-79
2023/07/01 11:22:54;;;;;;;10.27;5.40;;;;;;;;;;2542053;23;20025;-81
2023/07/01 11:24:21;;;;;;;11.45;6.07;;;;;;;;;;2554031;23;20009;-80
2023/07/01 11:25:46;;;;;;;9.70;5.68;;;;;;;;;;2533698;23;20014;-79
2023/07/01 12:25:14;;;;;;;16.25;8.73;;;;;;;;;;2540641;23;20348;-76
2023/07/01 12:26:39;;;;;;;15.60;8.48;;;;;;;;;;2520919;23;20394;-76
2023/07/01 12:28:35;;;;;;;17.13;9.07;;;;;;;;;;2527456;23;20006;-77
2023/07/01 12:34:10;;;;;;;14.40;8.75;;;;;;;;;;2507811;23;20026;-81
2023/07/01 12:35:31;;;;;;;20.20;9.52;;;;;;;;;;2494746;23;20015;-80
2023/07/01 12:37:11;;;;;;;11.93;6.60;;;;;;;;;;2497815;23;20011;-83
2023/07/01 12:38:32;;;;;;;12.25;7.15;;;;;;;;;;2510776;23;20510;-84
2023/07/01 12:48:57;;;;;;;10.65;5.97;;;;;;;;;;2524806;23;20017;-78
2023/07/01 12:50:20;;;;;;;13.18;6.22;;;;;;;;;;2530257;23;20464;-76
2023/07/01 12:51:47;;;;;;;12.25;5.97;;;;;;;;;;2527536;23;20079;-80
2023/07/01 12:53:14;;;;;;;10.30;5.88;;;;;;;;;;2538618;23;20025;-80
2023/07/01 12:54:53;;;;;;;11.93;5.97;;;;;;;;;;2543851;23;20016;-79
2023/07/01 12:58:10;;;;;;;14.30;5.65;;;;;;;;;;2544451;23;20013;-82
2023/07/01 12:59:31;;;;;;;13.43;5.70;;;;;;;;;;2544386;23;20071;-81
2023/07/01 13:00:52;;;;;;;7.05;4.15;;;;;;;;;;2542776;23;20010;-80
2023/07/01 13:02:13;;;;;;;11.00;5.18;;;;;;;;;;2532105;23;20542;-82
2023/07/01 13:03:34;;;;;;;8.23;4.63;;;;;;;;;;2526676;23;20025;-81
2023/07/01 13:05:03;;;;;;;7.07;4.38;;;;;;;;;;2542692;23;20462;-81
2023/07/01 13:06:26;;;;;;;8.02;4.25;;;;;;;;;;2534949;23;20010;-75
2023/07/01 13:07:48;;;;;;;8.57;4.78;;;;;;;;;;2526834;23;20017;-76
2023/07/01 13:09:09;;;;;;;7.90;4.53;;;;;;;;;;2531666;23;20018;-76
2023/07/01 13:10:30;;;;;;;11.88;5.68;;;;;;;;;;2530176;23;20010;-76
2023/07/01 13:11:51;;;;;;;7.97;4.25;;;;;;;;;;2543074;23;20036;-78
2023/07/01 13:13:15;;;;;;;19.17;7.25;;;;;;;;;;2529666;23;20049;-77
2023/07/01 13:14:39;;;;;;;12.52;6.15;;;;;;;;;;2526943;23;20415;-77
2023/07/01 13:18:40;;;;;;;10.98;5.45;;;;;;;;;;2542818;23;20397;-80
2023/07/01 13:20:20;;;;;;;13.50;5.88;;;;;;;;;;2547452;23;20016;-80
2023/07/01 13:24:12;;;;;;;12.55;6.60;;;;;;;;;;2539582;23;19997;-80
2023/07/01 13:25:36;;;;;;;14.25;6.18;;;;;;;;;;2534829;23;20483;-79
2023/07/01 14:25:56;;;;;;;12.18;7.03;;;;;;;;;;2561086;23;20020;-96
2023/07/01 14:27:25;;;;;;;11.32;5.95;;;;;;;;;;2562372;23;20028;-96
2023/07/01 14:28:48;;;;;;;10.75;5.88;;;;;;;;;;2558175;23;20019;-95
2023/07/01 14:30:11;;;;;;;12.30;6.90;;;;;;;;;;2556645;23;20016;-95
2023/07/01 14:31:32;;;;;;;;;;;;;;;;;;2558006;23;20450;-95
2023/07/01 14:32:53;;;;;;;20.42;8.18;;;;;;;;;;2566144;23;19903;-95
2023/07/01 14:34:16;;;;;;;13.80;7.00;;;;;;;;;;2557363;23;20013;-96
2023/07/01 14:35:37;;;;;;;10.65;6.50;;;;;;;;;;2557414;23;20112;-96
2023/07/01 14:36:58;;;;;;;11.70;6.43;;;;;;;;;;2556220;23;20016;-96
2023/07/01 14:38:21;;;;;;;9.98;6.22;;;;;;;;;;2558659;23;20009;-96
2023/07/01 14:39:43;;;;;;;14.55;7.20;;;;;;;;;;2554809;23;20016;-96
2023/07/01 14:41:10;;;;;;;;;;;;;;;;;;2569499;23;20009;-96
2023/07/01 14:42:33;;;;;;;15.05;7.32;;;;;;;;;;2561992;23;19913;-96
2023/07/01 14:44:14;;;;;;;54.00;22.70;;;;;;;;;;2533615;23;20010;-96
2023/07/01 14:45:45;;;;;;;12.38;6.25;;;;;;;;;;2550022;23;20011;-96
2023/07/01 14:47:18;;;;;;;12.82;6.93;;;;;;;;;;2554404;23;20013;-96
2023/07/01 14:48:56;;;;;;;13.70;6.35;;;;;;;;;;2559588;23;20064;-96
2023/07/01 14:50:26;;;;;;;11.40;5.82;;;;;;;;;;2558746;23;19997;-96
2023/07/01 14:51:58;;;;;;;13.60;6.82;;;;;;;;;;2555242;23;20009;-96
2023/07/01 14:53:19;;;;;;;10.35;6.00;;;;;;;;;;2560751;23;20009;-96
2023/07/01 14:54:40;;;;;;;14.40;7.63;;;;;;;;;;2519480;23;20010;-96
2023/07/01 14:56:19;;;;;;;8.30;4.90;;;;;;;;;;2547135;23;20081;-96
2023/07/01 14:57:41;;;;;;;15.05;5.95;;;;;;;;;;2557831;23;20009;-96